ADDS METAR Data INFO
IDs: Format: Raw Decoded Include TAF

Data at: 2059 UTC 24 Apr 2018

METAR for:KMGY (Dayton/Wright Brothe, OH, US)
Text:KMGY 242053Z AUTO 07007KT 3SM BR BKN006 BKN013 OVC021 13/11 A2990 RMK AO2 RAB14E49 SLP123 P0000 60000 T01280111 56010
Temperature: 12.8°C ( 55°F)
Dewpoint: 11.1°C ( 52°F) [RH = 89%]
Pressure (altimeter):29.90 inches Hg (1012.6 mb) [Sea level pressure: 1012.3 mb]
Winds:from the ENE (70 degrees) at 8 MPH (7 knots; 3.6 m/s)
Visibility: 3 sm ( 5 km)
Ceiling:600 feet AGL
Clouds: broken clouds at 600 feet AGL, broken clouds at 1300 feet AGL, overcast cloud deck at 2100 feet AGL
Weather:BR (mist)
QC Flag:automated observation with no human augmentation